sensor_id;sensor_type;location;lat;lon;timestamp;temperature;humidity
4002;DHT22;2015;48.670;9.060;2022-11-18T00:01:21;7.80;99.90
4002;DHT22;2015;48.670;9.060;2022-11-18T00:03:53;7.90;99.90
4002;DHT22;2015;48.670;9.060;2022-11-18T00:06:27;7.90;99.90
4002;DHT22;2015;48.670;9.060;2022-11-18T00:08:59;7.90;99.90
4002;DHT22;2015;48.670;9.060;2022-11-18T00:11:32;7.90;99.90
4002;DHT22;2015;48.670;9.060;2022-11-18T00:14:24;7.90;99.90
4002;DHT22;2015;48.670;9.060;2022-11-18T00:17:02;7.90;99.90
4002;DHT22;2015;48.670;9.060;2022-11-18T00:19:36;7.90;99.90
4002;DHT22;2015;48.670;9.060;2022-11-18T00:22:11;7.90;99.90
4002;DHT22;2015;48.670;9.060;2022-11-18T00:24:43;7.80;99.90
4002;DHT22;2015;48.670;9.060;2022-11-18T00:27:15;7.80;99.90
4002;DHT22;2015;48.670;9.060;2022-11-18T00:29:47;7.80;99.90
4002;DHT22;2015;48.670;9.060;2022-11-18T00:32:18;7.70;99.90
4002;DHT22;2015;48.670;9.060;2022-11-18T00:34:51;7.70;99.90
4002;DHT22;2015;48.670;9.060;2022-11-18T00:37:23;7.70;99.90
4002;DHT22;2015;48.670;9.060;2022-11-18T00:39:54;7.70;99.90
4002;DHT22;2015;48.670;9.060;2022-11-18T00:42:26;7.70;99.90
4002;DHT22;2015;48.670;9.060;2022-11-18T00:49:52;7.70;99.90
4002;DHT22;2015;48.670;9.060;2022-11-18T00:52:24;7.70;99.90
4002;DHT22;2015;48.670;9.060;2022-11-18T00:54:56;7.70;99.90
4002;DHT22;2015;48.670;9.060;2022-11-18T00:57:28;7.60;99.90
4002;DHT22;2015;48.670;9.060;2022-11-18T01:00:00;7.60;99.90
4002;DHT22;2015;48.670;9.060;2022-11-18T01:02:32;7.70;99.90
4002;DHT22;2015;48.670;9.060;2022-11-18T01:05:04;7.60;99.90
4002;DHT22;2015;48.670;9.060;2022-11-18T01:07:37;7.60;99.90
4002;DHT22;2015;48.670;9.060;2022-11-18T01:10:08;7.60;99.90
4002;DHT22;2015;48.670;9.060;2022-11-18T01:12:40;7.60;99.90
4002;DHT22;2015;48.670;9.060;2022-11-18T01:15:38;7.60;99.90
4002;DHT22;2015;48.670;9.060;2022-11-18T01:18:10;7.60;99.90
4002;DHT22;2015;48.670;9.060;2022-11-18T01:20:43;7.70;99.90
4002;DHT22;2015;48.670;9.060;2022-11-18T01:23:16;7.70;99.90
4002;DHT22;2015;48.670;9.060;2022-11-18T01:25:48;7.70;99.90
4002;DHT22;2015;48.670;9.060;2022-11-18T01:28:21;7.70;99.90
4002;DHT22;2015;48.670;9.060;2022-11-18T01:31:06;7.70;99.90
4002;DHT22;2015;48.670;9.060;2022-11-18T01:33:38;7.80;99.90
4002;DHT22;2015;48.670;9.060;2022-11-18T01:36:21;7.80;99.90
4002;DHT22;2015;48.670;9.060;2022-11-18T01:38:54;7.80;99.90
4002;DHT22;2015;48.670;9.060;2022-11-18T01:41:26;7.80;99.90
4002;DHT22;2015;48.670;9.060;2022-11-18T01:44:04;7.70;99.90
4002;DHT22;2015;48.670;9.060;2022-11-18T01:46:37;7.70;99.90
4002;DHT22;2015;48.670;9.060;2022-11-18T01:49:12;7.70;99.90
4002;DHT22;2015;48.670;9.060;2022-11-18T01:51:50;7.60;99.90
4002;DHT22;2015;48.670;9.060;2022-11-18T01:54:26;7.60;99.90
4002;DHT22;2015;48.670;9.060;2022-11-18T01:57:04;7.70;99.90
4002;DHT22;2015;48.670;9.060;2022-11-18T01:59:40;7.70;99.90
4002;DHT22;2015;48.670;9.060;2022-11-18T02:02:13;7.70;99.90
4002;DHT22;2015;48.670;9.060;2022-11-18T02:04:47;7.60;99.90
4002;DHT22;2015;48.670;9.060;2022-11-18T02:07:21;7.60;99.90
4002;DHT22;2015;48.670;9.060;2022-11-18T02:09:54;7.60;99.90
4002;DHT22;2015;48.670;9.060;2022-11-18T02:12:26;7.70;99.90
4002;DHT22;2015;48.670;9.060;2022-11-18T02:14:59;7.70;99.90
4002;DHT22;2015;48.670;9.060;2022-11-18T02:17:55;7.70;99.90
4002;DHT22;2015;48.670;9.060;2022-11-18T02:20:32;7.70;99.90
4002;DHT22;2015;48.670;9.060;2022-11-18T02:26:11;7.60;99.90
4002;DHT22;2015;48.670;9.060;2022-11-18T02:29:47;7.60;99.90
4002;DHT22;2015;48.670;9.060;2022-11-18T02:32:20;7.60;99.90
4002;DHT22;2015;48.670;9.060;2022-11-18T02:37:48;7.60;99.90
4002;DHT22;2015;48.670;9.060;2022-11-18T02:40:30;7.60;99.90
4002;DHT22;2015;48.670;9.060;2022-11-18T02:43:08;7.60;99.90
4002;DHT22;2015;48.670;9.060;2022-11-18T02:45:48;7.60;99.90
4002;DHT22;2015;48.670;9.060;2022-11-18T02:48:23;7.60;99.90
4002;DHT22;2015;48.670;9.060;2022-11-18T02:50:57;7.50;99.90
4002;DHT22;2015;48.670;9.060;2022-11-18T02:53:54;7.60;99.90
4002;DHT22;2015;48.670;9.060;2022-11-18T02:56:27;7.60;99.90
4002;DHT22;2015;48.670;9.060;2022-11-18T02:59:01;7.60;99.90
4002;DHT22;2015;48.670;9.060;2022-11-18T03:01:34;7.60;99.90
4002;DHT22;2015;48.670;9.060;2022-11-18T03:04:06;7.60;99.90
4002;DHT22;2015;48.670;9.060;2022-11-18T03:06:49;7.60;99.90
4002;DHT22;2015;48.670;9.060;2022-11-18T03:09:30;7.60;99.90
4002;DHT22;2015;48.670;9.060;2022-11-18T03:17:59;7.50;99.90
4002;DHT22;2015;48.670;9.060;2022-11-18T03:20:38;7.50;99.90
4002;DHT22;2015;48.670;9.060;2022-11-18T03:25:52;7.50;99.90
4002;DHT22;2015;48.670;9.060;2022-11-18T03:28:55;7.50;99.90
4002;DHT22;2015;48.670;9.060;2022-11-18T03:34:27;7.40;99.90
4002;DHT22;2015;48.670;9.060;2022-11-18T03:37:02;7.40;99.90
4002;DHT22;2015;48.670;9.060;2022-11-18T03:39:45;7.40;99.90
4002;DHT22;2015;48.670;9.060;2022-11-18T03:42:31;7.30;99.90
4002;DHT22;2015;48.670;9.060;2022-11-18T03:48:14;7.30;99.90
4002;DHT22;2015;48.670;9.060;2022-11-18T03:50:58;7.40;99.90
4002;DHT22;2015;48.670;9.060;2022-11-18T03:53:34;7.40;99.90
4002;DHT22;2015;48.670;9.060;2022-11-18T03:56:14;7.40;99.90
4002;DHT22;2015;48.670;9.060;2022-11-18T04:01:52;7.40;99.90
4002;DHT22;2015;48.670;9.060;2022-11-18T04:04:26;7.40;99.90
4002;DHT22;2015;48.670;9.060;2022-11-18T04:07:10;7.40;99.90
4002;DHT22;2015;48.670;9.060;2022-11-18T04:09:49;7.40;99.90
4002;DHT22;2015;48.670;9.060;2022-11-18T04:12:24;7.40;99.90
4002;DHT22;2015;48.670;9.060;2022-11-18T04:14:58;7.40;99.90
4002;DHT22;2015;48.670;9.060;2022-11-18T04:17:30;7.40;99.90
4002;DHT22;2015;48.670;9.060;2022-11-18T04:20:02;7.40;99.90
4002;DHT22;2015;48.670;9.060;2022-11-18T04:22:33;7.40;99.90
4002;DHT22;2015;48.670;9.060;2022-11-18T04:25:05;7.40;99.90
4002;DHT22;2015;48.670;9.060;2022-11-18T04:27:37;7.30;99.90
4002;DHT22;2015;48.670;9.060;2022-11-18T04:30:10;7.30;99.90
4002;DHT22;2015;48.670;9.060;2022-11-18T04:32:41;7.20;99.90
4002;DHT22;2015;48.670;9.060;2022-11-18T04:35:14;7.30;99.90
4002;DHT22;2015;48.670;9.060;2022-11-18T04:37:46;7.30;99.90
4002;DHT22;2015;48.670;9.060;2022-11-18T04:40:17;7.20;99.90
4002;DHT22;2015;48.670;9.060;2022-11-18T04:42:50;7.20;99.90
4002;DHT22;2015;48.670;9.060;2022-11-18T04:45:22;7.20;99.90
4002;DHT22;2015;48.670;9.060;2022-11-18T04:47:54;7.20;99.90
4002;DHT22;2015;48.670;9.060;2022-11-18T04:50:33;7.20;99.90
4002;DHT22;2015;48.670;9.060;2022-11-18T04:53:05;7.20;99.90
4002;DHT22;2015;48.670;9.060;2022-11-18T04:55:37;7.20;99.90
4002;DHT22;2015;48.670;9.060;2022-11-18T04:58:09;7.20;99.90
4002;DHT22;2015;48.670;9.060;2022-11-18T05:00:42;7.20;99.90
4002;DHT22;2015;48.670;9.060;2022-11-18T05:03:14;7.10;99.90
4002;DHT22;2015;48.670;9.060;2022-11-18T05:05:46;7.10;99.90
4002;DHT22;2015;48.670;9.060;2022-11-18T05:08:18;7.10;99.90
4002;DHT22;2015;48.670;9.060;2022-11-18T05:10:50;7.10;99.90
4002;DHT22;2015;48.670;9.060;2022-11-18T05:13:42;7.10;99.90
4002;DHT22;2015;48.670;9.060;2022-11-18T05:16:15;7.00;99.90
4002;DHT22;2015;48.670;9.060;2022-11-18T05:18:47;7.10;99.90
4002;DHT22;2015;48.670;9.060;2022-11-18T05:21:21;7.10;99.90
4002;DHT22;2015;48.670;9.060;2022-11-18T05:23:53;7.10;99.90
4002;DHT22;2015;48.670;9.060;2022-11-18T05:26:26;7.10;99.90
4002;DHT22;2015;48.670;9.060;2022-11-18T05:28:58;7.10;99.90
4002;DHT22;2015;48.670;9.060;2022-11-18T05:31:31;7.10;99.90
4002;DHT22;2015;48.670;9.060;2022-11-18T05:34:03;7.10;99.90
4002;DHT22;2015;48.670;9.060;2022-11-18T05:36:35;7.10;99.90
4002;DHT22;2015;48.670;9.060;2022-11-18T05:39:08;7.10;99.90
4002;DHT22;2015;48.670;9.060;2022-11-18T05:41:40;7.10;99.90
4002;DHT22;2015;48.670;9.060;2022-11-18T05:44:30;7.10;99.90
4002;DHT22;2015;48.670;9.060;2022-11-18T05:47:03;7.10;99.90
4002;DHT22;2015;48.670;9.060;2022-11-18T05:49:35;7.00;99.90
4002;DHT22;2015;48.670;9.060;2022-11-18T05:52:07;7.00;99.90
4002;DHT22;2015;48.670;9.060;2022-11-18T05:54:41;7.00;99.90
4002;DHT22;2015;48.670;9.060;2022-11-18T05:57:15;7.00;99.90
4002;DHT22;2015;48.670;9.060;2022-11-18T05:59:47;7.00;99.90
4002;DHT22;2015;48.670;9.060;2022-11-18T06:02:21;7.00;99.90
4002;DHT22;2015;48.670;9.060;2022-11-18T06:05:00;7.00;99.90
4002;DHT22;2015;48.670;9.060;2022-11-18T06:07:38;7.00;99.90
4002;DHT22;2015;48.670;9.060;2022-11-18T06:10:22;7.00;99.90
4002;DHT22;2015;48.670;9.060;2022-11-18T06:12:58;7.00;99.90
4002;DHT22;2015;48.670;9.060;2022-11-18T06:15:37;7.00;99.90
4002;DHT22;2015;48.670;9.060;2022-11-18T06:18:46;7.00;99.90
4002;DHT22;2015;48.670;9.060;2022-11-18T06:21:11;6.90;99.90
4002;DHT22;2015;48.670;9.060;2022-11-18T06:23:44;6.90;99.90
4002;DHT22;2015;48.670;9.060;2022-11-18T06:26:16;6.90;99.90
4002;DHT22;2015;48.670;9.060;2022-11-18T06:28:48;6.90;99.90
4002;DHT22;2015;48.670;9.060;2022-11-18T06:31:20;7.00;99.90
4002;DHT22;2015;48.670;9.060;2022-11-18T06:33:52;7.00;99.90
4002;DHT22;2015;48.670;9.060;2022-11-18T06:36:24;7.00;99.90
4002;DHT22;2015;48.670;9.060;2022-11-18T06:38:55;7.00;99.90
4002;DHT22;2015;48.670;9.060;2022-11-18T06:41:27;7.00;99.90
4002;DHT22;2015;48.670;9.060;2022-11-18T06:43:59;7.00;99.90
4002;DHT22;2015;48.670;9.060;2022-11-18T06:46:31;7.00;99.90
4002;DHT22;2015;48.670;9.060;2022-11-18T06:49:23;7.00;99.90
4002;DHT22;2015;48.670;9.060;2022-11-18T06:51:55;7.00;99.90
4002;DHT22;2015;48.670;9.060;2022-11-18T06:54:27;7.00;99.90
4002;DHT22;2015;48.670;9.060;2022-11-18T06:56:59;7.00;99.90
4002;DHT22;2015;48.670;9.060;2022-11-18T06:59:31;7.00;99.90
4002;DHT22;2015;48.670;9.060;2022-11-18T07:02:04;7.00;99.90
4002;DHT22;2015;48.670;9.060;2022-11-18T07:04:36;7.00;99.90
4002;DHT22;2015;48.670;9.060;2022-11-18T07:07:10;7.10;99.90
4002;DHT22;2015;48.670;9.060;2022-11-18T07:09:42;7.10;99.90
4002;DHT22;2015;48.670;9.060;2022-11-18T07:12:14;7.20;99.90
4002;DHT22;2015;48.670;9.060;2022-11-18T07:14:45;7.20;99.90
4002;DHT22;2015;48.670;9.060;2022-11-18T07:17:17;7.20;99.90
4002;DHT22;2015;48.670;9.060;2022-11-18T07:19:49;7.20;99.90
4002;DHT22;2015;48.670;9.060;2022-11-18T07:22:23;7.30;99.90
4002;DHT22;2015;48.670;9.060;2022-11-18T07:24:55;7.20;99.90
4002;DHT22;2015;48.670;9.060;2022-11-18T07:27:27;7.20;99.90
4002;DHT22;2015;48.670;9.060;2022-11-18T07:29:59;7.20;99.90
4002;DHT22;2015;48.670;9.060;2022-11-18T07:32:32;7.20;99.90
4002;DHT22;2015;48.670;9.060;2022-11-18T07:35:04;7.20;99.90
4002;DHT22;2015;48.670;9.060;2022-11-18T07:37:37;7.30;99.90
4002;DHT22;2015;48.670;9.060;2022-11-18T07:40:09;7.30;99.90
4002;DHT22;2015;48.670;9.060;2022-11-18T07:42:41;7.20;99.90
4002;DHT22;2015;48.670;9.060;2022-11-18T07:45:13;7.20;99.90
4002;DHT22;2015;48.670;9.060;2022-11-18T07:47:45;7.20;99.90
4002;DHT22;2015;48.670;9.060;2022-11-18T07:50:38;7.20;99.90
4002;DHT22;2015;48.670;9.060;2022-11-18T07:54:58;7.20;99.90
4002;DHT22;2015;48.670;9.060;2022-11-18T08:02:24;7.20;99.90
4002;DHT22;2015;48.670;9.060;2022-11-18T08:04:57;7.30;99.90
4002;DHT22;2015;48.670;9.060;2022-11-18T08:07:29;7.50;99.90
4002;DHT22;2015;48.670;9.060;2022-11-18T08:10:04;7.40;99.90
4002;DHT22;2015;48.670;9.060;2022-11-18T08:12:36;7.50;99.90
4002;DHT22;2015;48.670;9.060;2022-11-18T08:15:08;7.50;99.90
4002;DHT22;2015;48.670;9.060;2022-11-18T08:17:40;7.50;99.90
4002;DHT22;2015;48.670;9.060;2022-11-18T08:20:12;7.50;99.90
4002;DHT22;2015;48.670;9.060;2022-11-18T08:22:44;7.50;99.90
4002;DHT22;2015;48.670;9.060;2022-11-18T08:25:16;7.50;99.90
4002;DHT22;2015;48.670;9.060;2022-11-18T08:27:47;7.60;99.90
4002;DHT22;2015;48.670;9.060;2022-11-18T08:30:19;7.60;99.90
4002;DHT22;2015;48.670;9.060;2022-11-18T08:32:51;7.60;99.90
4002;DHT22;2015;48.670;9.060;2022-11-18T08:35:25;7.60;99.90
4002;DHT22;2015;48.670;9.060;2022-11-18T08:37:57;7.60;99.90
4002;DHT22;2015;48.670;9.060;2022-11-18T08:40:29;7.60;99.90
4002;DHT22;2015;48.670;9.060;2022-11-18T08:43:01;7.60;99.90
4002;DHT22;2015;48.670;9.060;2022-11-18T08:45:33;7.70;99.90
4002;DHT22;2015;48.670;9.060;2022-11-18T08:48:05;7.70;99.90
4002;DHT22;2015;48.670;9.060;2022-11-18T08:50:36;7.80;99.90
4002;DHT22;2015;48.670;9.060;2022-11-18T08:53:08;7.70;99.90
4002;DHT22;2015;48.670;9.060;2022-11-18T08:55:40;7.70;99.90
4002;DHT22;2015;48.670;9.060;2022-11-18T08:58:12;7.70;99.90
4002;DHT22;2015;48.670;9.060;2022-11-18T09:00:43;7.60;99.90
4002;DHT22;2015;48.670;9.060;2022-11-18T09:03:15;7.60;99.90
4002;DHT22;2015;48.670;9.060;2022-11-18T09:05:47;7.70;99.90
4002;DHT22;2015;48.670;9.060;2022-11-18T09:08:19;7.70;99.90
4002;DHT22;2015;48.670;9.060;2022-11-18T09:10:52;7.70;99.90
4002;DHT22;2015;48.670;9.060;2022-11-18T09:13:24;7.70;99.90
4002;DHT22;2015;48.670;9.060;2022-11-18T09:16:15;7.70;99.90
4002;DHT22;2015;48.670;9.060;2022-11-18T09:18:48;7.70;99.90
4002;DHT22;2015;48.670;9.060;2022-11-18T09:21:20;7.70;99.90
4002;DHT22;2015;48.670;9.060;2022-11-18T09:23:52;7.70;99.90
4002;DHT22;2015;48.670;9.060;2022-11-18T09:26:24;7.60;99.90
4002;DHT22;2015;48.670;9.060;2022-11-18T09:28:55;7.70;99.90
4002;DHT22;2015;48.670;9.060;2022-11-18T09:31:27;7.70;99.90
4002;DHT22;2015;48.670;9.060;2022-11-18T09:33:59;7.80;99.90
4002;DHT22;2015;48.670;9.060;2022-11-18T09:36:31;7.90;99.90
4002;DHT22;2015;48.670;9.060;2022-11-18T09:39:03;8.00;99.90
4002;DHT22;2015;48.670;9.060;2022-11-18T09:52:22;8.10;99.90
4002;DHT22;2015;48.670;9.060;2022-11-18T09:54:55;8.10;99.90
4002;DHT22;2015;48.670;9.060;2022-11-18T09:57:48;8.10;99.90
4002;DHT22;2015;48.670;9.060;2022-11-18T10:00:21;8.10;99.90
4002;DHT22;2015;48.670;9.060;2022-11-18T10:03:03;8.10;99.90
4002;DHT22;2015;48.670;9.060;2022-11-18T10:06:00;8.10;99.90
4002;DHT22;2015;48.670;9.060;2022-11-18T10:08:54;8.10;99.90
4002;DHT22;2015;48.670;9.060;2022-11-18T10:11:37;8.20;99.90
4002;DHT22;2015;48.670;9.060;2022-11-18T10:23:16;8.70;99.90
4002;DHT22;2015;48.670;9.060;2022-11-18T10:25:49;8.90;99.90
4002;DHT22;2015;48.670;9.060;2022-11-18T10:28:23;8.90;99.90
4002;DHT22;2015;48.670;9.060;2022-11-18T10:31:09;9.00;99.90
4002;DHT22;2015;48.670;9.060;2022-11-18T10:33:42;9.10;99.90
4002;DHT22;2015;48.670;9.060;2022-11-18T10:38:51;9.30;99.90
4002;DHT22;2015;48.670;9.060;2022-11-18T10:41:45;9.40;99.90
4002;DHT22;2015;48.670;9.060;2022-11-18T10:44:38;9.50;99.90
4002;DHT22;2015;48.670;9.060;2022-11-18T10:47:23;9.70;99.90
4002;DHT22;2015;48.670;9.060;2022-11-18T10:50:00;9.70;99.90
4002;DHT22;2015;48.670;9.060;2022-11-18T10:52:51;9.80;99.90
4002;DHT22;2015;48.670;9.060;2022-11-18T10:55:25;9.90;99.90
4002;DHT22;2015;48.670;9.060;2022-11-18T10:58:15;10.00;99.90
4002;DHT22;2015;48.670;9.060;2022-11-18T11:00:48;9.90;99.90
4002;DHT22;2015;48.670;9.060;2022-11-18T11:06:28;9.70;99.90
4002;DHT22;2015;48.670;9.060;2022-11-18T11:11:41;9.50;99.90
4002;DHT22;2015;48.670;9.060;2022-11-18T11:14:26;9.50;99.90
4002;DHT22;2015;48.670;9.060;2022-11-18T11:17:34;9.50;99.90
4002;DHT22;2015;48.670;9.060;2022-11-18T11:20:18;9.60;99.90
4002;DHT22;2015;48.670;9.060;2022-11-18T11:22:51;9.60;99.90
4002;DHT22;2015;48.670;9.060;2022-11-18T11:25:32;9.60;99.90
4002;DHT22;2015;48.670;9.060;2022-11-18T11:43:29;9.70;99.90
4002;DHT22;2015;48.670;9.060;2022-11-18T11:46:15;9.70;99.90
4002;DHT22;2015;48.670;9.060;2022-11-18T11:51:57;9.60;99.90
4002;DHT22;2015;48.670;9.060;2022-11-18T11:54:44;9.70;99.90
4002;DHT22;2015;48.670;9.060;2022-11-18T11:58:03;9.80;99.90
4002;DHT22;2015;48.670;9.060;2022-11-18T12:00:45;9.80;99.90
4002;DHT22;2015;48.670;9.060;2022-11-18T12:03:44;9.90;99.90
4002;DHT22;2015;48.670;9.060;2022-11-18T12:06:22;9.80;99.90
4002;DHT22;2015;48.670;9.060;2022-11-18T12:11:54;9.80;99.90
4002;DHT22;2015;48.670;9.060;2022-11-18T12:17:21;9.80;99.90
4002;DHT22;2015;48.670;9.060;2022-11-18T12:19:55;9.80;99.90
4002;DHT22;2015;48.670;9.060;2022-11-18T12:25:59;9.70;99.90
4002;DHT22;2015;48.670;9.060;2022-11-18T12:28:37;9.60;99.90
4002;DHT22;2015;48.670;9.060;2022-11-18T12:31:32;9.60;99.90
4002;DHT22;2015;48.670;9.060;2022-11-18T12:34:16;9.50;99.90
4002;DHT22;2015;48.670;9.060;2022-11-18T12:36:49;9.50;99.90
4002;DHT22;2015;48.670;9.060;2022-11-18T12:42:01;9.40;99.90
4002;DHT22;2015;48.670;9.060;2022-11-18T12:44:52;9.40;99.90
4002;DHT22;2015;48.670;9.060;2022-11-18T12:50:14;9.50;99.90
4002;DHT22;2015;48.670;9.060;2022-11-18T12:52:47;9.60;99.90
4002;DHT22;2015;48.670;9.060;2022-11-18T12:55:25;9.70;99.90
4002;DHT22;2015;48.670;9.060;2022-11-18T12:58:00;9.80;99.90
4002;DHT22;2015;48.670;9.060;2022-11-18T13:00:33;9.90;99.90
4002;DHT22;2015;48.670;9.060;2022-11-18T13:03:25;9.90;99.90
4002;DHT22;2015;48.670;9.060;2022-11-18T13:06:03;9.90;99.90
4002;DHT22;2015;48.670;9.060;2022-11-18T13:08:36;9.90;99.90
4002;DHT22;2015;48.670;9.060;2022-11-18T13:11:16;9.90;99.90
4002;DHT22;2015;48.670;9.060;2022-11-18T13:14:14;10.00;99.90
4002;DHT22;2015;48.670;9.060;2022-11-18T13:17:32;10.10;99.90
4002;DHT22;2015;48.670;9.060;2022-11-18T13:20:31;10.30;99.90
4002;DHT22;2015;48.670;9.060;2022-11-18T13:26:14;10.20;99.90
4002;DHT22;2015;48.670;9.060;2022-11-18T13:37:25;10.10;99.90
4002;DHT22;2015;48.670;9.060;2022-11-18T13:39:58;9.80;99.90
4002;DHT22;2015;48.670;9.060;2022-11-18T13:42:31;9.60;99.90
4002;DHT22;2015;48.670;9.060;2022-11-18T13:45:03;9.50;99.90
4002;DHT22;2015;48.670;9.060;2022-11-18T13:55:38;9.00;99.90
4002;DHT22;2015;48.670;9.060;2022-11-18T14:01:03;8.90;99.90
4002;DHT22;2015;48.670;9.060;2022-11-18T14:03:48;8.80;99.90
4002;DHT22;2015;48.670;9.060;2022-11-18T14:09:28;8.70;99.90
4002;DHT22;2015;48.670;9.060;2022-11-18T14:14:40;8.60;99.90
4002;DHT22;2015;48.670;9.060;2022-11-18T14:17:28;8.60;99.90
4002;DHT22;2015;48.670;9.060;2022-11-18T14:20:06;8.50;99.90
4002;DHT22;2015;48.670;9.060;2022-11-18T14:22:41;8.60;99.90
4002;DHT22;2015;48.670;9.060;2022-11-18T14:25:32;8.60;99.90
4002;DHT22;2015;48.670;9.060;2022-11-18T14:36:44;8.60;99.90
4002;DHT22;2015;48.670;9.060;2022-11-18T14:39:26;8.60;99.90
4002;DHT22;2015;48.670;9.060;2022-11-18T14:41:58;8.60;99.90
4002;DHT22;2015;48.670;9.060;2022-11-18T14:44:31;8.60;99.90
4002;DHT22;2015;48.670;9.060;2022-11-18T14:47:08;8.60;99.90
4002;DHT22;2015;48.670;9.060;2022-11-18T14:49:41;8.60;99.90
4002;DHT22;2015;48.670;9.060;2022-11-18T14:52:13;8.60;99.90
4002;DHT22;2015;48.670;9.060;2022-11-18T14:54:44;8.50;99.90
4002;DHT22;2015;48.670;9.060;2022-11-18T14:57:16;8.50;99.90
4002;DHT22;2015;48.670;9.060;2022-11-18T14:59:49;8.50;99.90
4002;DHT22;2015;48.670;9.060;2022-11-18T15:02:21;8.40;99.90
4002;DHT22;2015;48.670;9.060;2022-11-18T15:04:52;8.40;99.90
4002;DHT22;2015;48.670;9.060;2022-11-18T15:07:24;8.20;99.90
4002;DHT22;2015;48.670;9.060;2022-11-18T15:09:56;8.20;99.90
4002;DHT22;2015;48.670;9.060;2022-11-18T15:12:28;8.10;99.90
4002;DHT22;2015;48.670;9.060;2022-11-18T15:15:00;8.10;99.90
4002;DHT22;2015;48.670;9.060;2022-11-18T15:17:31;8.10;99.90
4002;DHT22;2015;48.670;9.060;2022-11-18T15:20:11;8.10;99.90
4002;DHT22;2015;48.670;9.060;2022-11-18T15:22:44;8.10;99.90
4002;DHT22;2015;48.670;9.060;2022-11-18T15:25:16;8.10;99.90
4002;DHT22;2015;48.670;9.060;2022-11-18T15:27:47;8.10;99.90
4002;DHT22;2015;48.670;9.060;2022-11-18T15:30:19;8.10;99.90
4002;DHT22;2015;48.670;9.060;2022-11-18T15:32:51;8.10;99.90
4002;DHT22;2015;48.670;9.060;2022-11-18T15:35:23;8.00;99.90
4002;DHT22;2015;48.670;9.060;2022-11-18T15:37:56;8.00;99.90
4002;DHT22;2015;48.670;9.060;2022-11-18T15:40:28;8.10;99.90
4002;DHT22;2015;48.670;9.060;2022-11-18T15:42:59;8.10;99.90
4002;DHT22;2015;48.670;9.060;2022-11-18T15:45:31;8.10;99.90
4002;DHT22;2015;48.670;9.060;2022-11-18T15:48:03;8.10;99.90
4002;DHT22;2015;48.670;9.060;2022-11-18T15:50:34;8.10;99.90
4002;DHT22;2015;48.670;9.060;2022-11-18T15:53:06;8.10;99.90
4002;DHT22;2015;48.670;9.060;2022-11-18T15:55:38;8.20;99.90
4002;DHT22;2015;48.670;9.060;2022-11-18T15:58:10;8.30;99.90
4002;DHT22;2015;48.670;9.060;2022-11-18T16:00:41;8.30;99.90
4002;DHT22;2015;48.670;9.060;2022-11-18T16:03:15;8.30;99.90
4002;DHT22;2015;48.670;9.060;2022-11-18T16:05:47;8.30;99.90
4002;DHT22;2015;48.670;9.060;2022-11-18T16:08:19;8.20;99.90
4002;DHT22;2015;48.670;9.060;2022-11-18T16:10:54;8.20;99.90
4002;DHT22;2015;48.670;9.060;2022-11-18T16:13:45;8.10;99.90
4002;DHT22;2015;48.670;9.060;2022-11-18T16:16:21;8.00;99.90
4002;DHT22;2015;48.670;9.060;2022-11-18T16:18:54;7.80;99.90
4002;DHT22;2015;48.670;9.060;2022-11-18T16:21:27;7.70;99.90
4002;DHT22;2015;48.670;9.060;2022-11-18T16:24:01;7.60;99.90
4002;DHT22;2015;48.670;9.060;2022-11-18T16:26:34;7.50;99.90
4002;DHT22;2015;48.670;9.060;2022-11-18T16:29:09;7.40;99.90
4002;DHT22;2015;48.670;9.060;2022-11-18T16:31:46;7.30;99.90
4002;DHT22;2015;48.670;9.060;2022-11-18T16:34:26;7.20;99.90
4002;DHT22;2015;48.670;9.060;2022-11-18T16:36:58;7.00;99.90
4002;DHT22;2015;48.670;9.060;2022-11-18T16:39:31;7.00;99.90
4002;DHT22;2015;48.670;9.060;2022-11-18T16:42:03;7.00;99.90
4002;DHT22;2015;48.670;9.060;2022-11-18T16:44:40;6.90;99.90
4002;DHT22;2015;48.670;9.060;2022-11-18T16:47:12;6.90;99.90
4002;DHT22;2015;48.670;9.060;2022-11-18T16:49:45;6.90;99.90
4002;DHT22;2015;48.670;9.060;2022-11-18T16:52:17;6.80;99.90
4002;DHT22;2015;48.670;9.060;2022-11-18T16:54:49;6.90;99.90
4002;DHT22;2015;48.670;9.060;2022-11-18T16:57:21;6.90;99.90
4002;DHT22;2015;48.670;9.060;2022-11-18T16:59:53;6.90;99.90
4002;DHT22;2015;48.670;9.060;2022-11-18T17:02:25;6.90;99.90
4002;DHT22;2015;48.670;9.060;2022-11-18T17:04:56;6.90;99.90
4002;DHT22;2015;48.670;9.060;2022-11-18T17:07:28;6.90;99.90
4002;DHT22;2015;48.670;9.060;2022-11-18T17:10:07;7.00;99.90
4002;DHT22;2015;48.670;9.060;2022-11-18T17:12:50;7.00;99.90
4002;DHT22;2015;48.670;9.060;2022-11-18T17:15:21;7.10;99.90
4002;DHT22;2015;48.670;9.060;2022-11-18T17:17:53;7.10;99.90
4002;DHT22;2015;48.670;9.060;2022-11-18T17:20:25;7.20;99.90
4002;DHT22;2015;48.670;9.060;2022-11-18T17:22:57;7.20;99.90
4002;DHT22;2015;48.670;9.060;2022-11-18T17:25:29;7.20;99.90
4002;DHT22;2015;48.670;9.060;2022-11-18T17:28:01;7.30;99.90
4002;DHT22;2015;48.670;9.060;2022-11-18T17:30:32;7.40;99.90
4002;DHT22;2015;48.670;9.060;2022-11-18T17:33:04;7.50;99.90
4002;DHT22;2015;48.670;9.060;2022-11-18T17:35:36;7.50;99.90
4002;DHT22;2015;48.670;9.060;2022-11-18T17:38:08;7.50;99.90
4002;DHT22;2015;48.670;9.060;2022-11-18T17:40:39;7.50;99.90
4002;DHT22;2015;48.670;9.060;2022-11-18T17:43:11;7.50;99.90
4002;DHT22;2015;48.670;9.060;2022-11-18T17:45:48;7.50;99.90
4002;DHT22;2015;48.670;9.060;2022-11-18T17:48:21;7.60;99.90
4002;DHT22;2015;48.670;9.060;2022-11-18T17:50:53;7.60;99.90
4002;DHT22;2015;48.670;9.060;2022-11-18T17:53:25;7.60;99.90
4002;DHT22;2015;48.670;9.060;2022-11-18T17:55:57;7.60;99.90
4002;DHT22;2015;48.670;9.060;2022-11-18T17:58:34;7.60;99.90
4002;DHT22;2015;48.670;9.060;2022-11-18T18:01:11;7.50;99.90
4002;DHT22;2015;48.670;9.060;2022-11-18T18:03:44;7.50;99.90
4002;DHT22;2015;48.670;9.060;2022-11-18T18:06:17;7.50;99.90
4002;DHT22;2015;48.670;9.060;2022-11-18T18:08:58;7.50;99.90
4002;DHT22;2015;48.670;9.060;2022-11-18T18:11:30;7.50;99.90
4002;DHT22;2015;48.670;9.060;2022-11-18T18:14:02;7.50;99.90
4002;DHT22;2015;48.670;9.060;2022-11-18T18:16:45;7.50;99.90
4002;DHT22;2015;48.670;9.060;2022-11-18T18:19:19;7.40;99.90
4002;DHT22;2015;48.670;9.060;2022-11-18T18:21:51;7.40;99.90
4002;DHT22;2015;48.670;9.060;2022-11-18T18:24:24;7.40;99.90
4002;DHT22;2015;48.670;9.060;2022-11-18T18:26:55;7.30;99.90
4002;DHT22;2015;48.670;9.060;2022-11-18T18:29:27;7.20;99.90
4002;DHT22;2015;48.670;9.060;2022-11-18T18:32:02;7.20;99.90
4002;DHT22;2015;48.670;9.060;2022-11-18T18:34:33;7.10;99.90
4002;DHT22;2015;48.670;9.060;2022-11-18T18:37:06;7.00;99.90
4002;DHT22;2015;48.670;9.060;2022-11-18T18:39:37;6.90;99.90
4002;DHT22;2015;48.670;9.060;2022-11-18T18:42:09;6.90;99.90
4002;DHT22;2015;48.670;9.060;2022-11-18T18:44:41;6.80;99.90
4002;DHT22;2015;48.670;9.060;2022-11-18T18:47:33;6.70;99.90
4002;DHT22;2015;48.670;9.060;2022-11-18T18:50:06;6.70;99.90
4002;DHT22;2015;48.670;9.060;2022-11-18T18:52:37;6.70;99.90
4002;DHT22;2015;48.670;9.060;2022-11-18T18:55:09;6.70;99.90
4002;DHT22;2015;48.670;9.060;2022-11-18T18:57:41;6.80;99.90
4002;DHT22;2015;48.670;9.060;2022-11-18T19:00:13;6.70;99.90
4002;DHT22;2015;48.670;9.060;2022-11-18T19:02:45;6.60;99.90
4002;DHT22;2015;48.670;9.060;2022-11-18T19:05:17;6.50;99.90
4002;DHT22;2015;48.670;9.060;2022-11-18T19:07:48;6.50;99.90
4002;DHT22;2015;48.670;9.060;2022-11-18T19:10:20;6.40;99.90
4002;DHT22;2015;48.670;9.060;2022-11-18T19:12:52;6.30;99.90
4002;DHT22;2015;48.670;9.060;2022-11-18T19:15:24;6.20;99.90
4002;DHT22;2015;48.670;9.060;2022-11-18T19:17:56;6.10;99.90
4002;DHT22;2015;48.670;9.060;2022-11-18T19:20:27;6.00;99.90
4002;DHT22;2015;48.670;9.060;2022-11-18T19:23:08;6.00;99.90
4002;DHT22;2015;48.670;9.060;2022-11-18T19:25:41;6.00;99.90